Time;durP1;ratioP1;P1;durP2;ratioP2;P2;SDS_P1;SDS_P2;PMS_P1;PMS_P2;Temp;Humidity;BMP_temperature;BMP_pressure;BME280_temperature;BME280_humidity;BME280_pressure;Samples;Min_cycle;Max_cycle;Signal;HPM_P1;HPM_P2
2023/07/21 00:00:21;;;;;;;9.30;5.13;;;;;;;;;;5079821;28;20464;-66
2023/07/21 00:02:47;;;;;;;8.02;4.93;;;;;;;;;;5103479;28;20051;-66
2023/07/21 00:05:15;;;;;;;10.23;5.53;;;;;;;;;;5099359;28;20050;-66
2023/07/21 00:07:41;;;;;;;8.52;5.10;;;;;;;;;;5117618;27;20639;-66
2023/07/21 00:10:08;;;;;;;8.27;4.75;;;;;;;;;;5108730;28;20386;-66
2023/07/21 00:12:40;;;;;;;9.20;4.88;;;;;;;;;;5109532;28;20071;-66
2023/07/21 00:15:06;;;;;;;7.93;4.82;;;;;;;;;;5107525;28;20413;-66
2023/07/21 00:17:34;;;;;;;8.45;4.82;;;;;;;;;;5110987;28;20051;-66
2023/07/21 00:20:11;;;;;;;9.43;4.38;;;;;;;;;;5108245;28;20035;-66
2023/07/21 00:22:38;;;;;;;7.85;5.25;;;;;;;;;;5110524;28;20130;-66
2023/07/21 00:25:10;;;;;;;7.60;4.82;;;;;;;;;;5109735;28;20465;-66
2023/07/21 00:27:40;;;;;;;6.90;4.93;;;;;;;;;;5107472;28;20047;-66
2023/07/21 00:30:07;;;;;;;7.20;4.25;;;;;;;;;;5112373;27;20047;-66
2023/07/21 00:32:34;;;;;;;6.20;3.70;;;;;;;;;;5113877;27;20456;-66
2023/07/21 00:35:00;;;;;;;5.32;3.55;;;;;;;;;;5113029;27;20107;-66
2023/07/21 00:37:26;;;;;;;6.00;3.55;;;;;;;;;;5103815;27;20127;-66
2023/07/21 00:39:53;;;;;;;5.68;3.17;;;;;;;;;;5109230;27;20448;-66
2023/07/21 00:42:20;;;;;;;6.72;3.05;;;;;;;;;;5110096;28;20097;-66
2023/07/21 00:44:46;;;;;;;5.00;3.30;;;;;;;;;;5114905;27;20032;-66
2023/07/21 00:47:13;;;;;;;7.15;3.40;;;;;;;;;;5114339;27;20047;-66
2023/07/21 00:49:40;;;;;;;6.40;3.25;;;;;;;;;;5112193;28;20077;-66
2023/07/21 00:52:09;;;;;;;4.63;3.08;;;;;;;;;;5112475;28;20052;-66
2023/07/21 00:54:35;;;;;;;4.80;2.90;;;;;;;;;;5113887;28;20043;-66
2023/07/21 00:57:01;;;;;;;4.07;2.53;;;;;;;;;;5112897;27;20040;-66
2023/07/21 00:59:28;;;;;;;7.55;3.05;;;;;;;;;;5116932;27;20450;-66
2023/07/21 01:01:54;;;;;;;12.45;3.40;;;;;;;;;;5106647;27;20345;-66
2023/07/21 01:04:20;;;;;;;6.18;3.60;;;;;;;;;;5110299;28;20043;-66
2023/07/21 01:06:47;;;;;;;5.93;2.90;;;;;;;;;;5107668;28;20123;-66
2023/07/21 01:09:13;;;;;;;6.00;3.33;;;;;;;;;;5110507;28;20147;-66
2023/07/21 01:11:40;;;;;;;5.82;3.47;;;;;;;;;;5112990;27;20040;-66
2023/07/21 01:14:07;;;;;;;5.45;3.65;;;;;;;;;;5112891;28;20439;-66
2023/07/21 01:16:37;;;;;;;5.35;3.17;;;;;;;;;;5111585;28;20043;-66
2023/07/21 01:19:08;;;;;;;4.57;2.88;;;;;;;;;;5111221;27;20050;-66
2023/07/21 01:21:46;;;;;;;6.32;3.22;;;;;;;;;;5113184;28;20055;-66
2023/07/21 01:24:17;;;;;;;7.53;3.67;;;;;;;;;;5105735;27;20051;-66
2023/07/21 01:26:43;;;;;;;8.80;4.97;;;;;;;;;;5104500;27;20132;-66
2023/07/21 01:29:10;;;;;;;9.23;4.10;;;;;;;;;;5104502;28;20633;-66
2023/07/21 01:31:38;;;;;;;7.45;5.20;;;;;;;;;;5103302;28;20048;-66
2023/07/21 01:34:06;;;;;;;8.68;5.70;;;;;;;;;;5102758;28;20047;-66
2023/07/21 01:36:33;;;;;;;9.02;5.05;;;;;;;;;;5103236;28;20081;-66
2023/07/21 01:38:59;;;;;;;7.45;4.97;;;;;;;;;;5103814;27;20051;-66
2023/07/21 01:41:26;;;;;;;7.82;4.82;;;;;;;;;;5101927;27;20474;-66
2023/07/21 01:43:56;;;;;;;7.57;4.97;;;;;;;;;;5105360;27;20529;-66
2023/07/21 01:46:22;;;;;;;6.32;4.35;;;;;;;;;;5105788;27;20035;-66
2023/07/21 01:48:48;;;;;;;8.23;4.68;;;;;;;;;;5102755;27;20072;-66
2023/07/21 01:51:16;;;;;;;7.25;4.82;;;;;;;;;;5101354;28;20055;-66
2023/07/21 01:53:45;;;;;;;6.72;3.90;;;;;;;;;;5099948;28;20176;-66
2023/07/21 01:56:20;;;;;;;6.15;3.90;;;;;;;;;;5105212;28;20052;-66
2023/07/21 01:58:47;;;;;;;6.57;4.47;;;;;;;;;;5099965;28;20036;-66
2023/07/21 02:01:14;;;;;;;6.10;3.90;;;;;;;;;;5101748;27;20044;-66
2023/07/21 02:03:41;;;;;;;8.93;4.10;;;;;;;;;;5101417;28;20035;-66
2023/07/21 02:06:14;;;;;;;7.07;4.00;;;;;;;;;;5102285;28;20084;-66
2023/07/21 02:08:40;;;;;;;4.95;3.30;;;;;;;;;;5103471;27;20042;-66
2023/07/21 02:11:06;;;;;;;8.25;3.20;;;;;;;;;;5101726;28;20035;-66
2023/07/21 02:13:33;;;;;;;5.10;3.10;;;;;;;;;;5104974;28;20040;-66
2023/07/21 02:15:59;;;;;;;5.25;3.28;;;;;;;;;;5103780;28;20081;-66
2023/07/21 02:18:25;;;;;;;4.53;2.67;;;;;;;;;;5105186;27;20059;-66
2023/07/21 02:20:51;;;;;;;8.25;2.40;;;;;;;;;;5102931;28;20514;-67
2023/07/21 02:23:17;;;;;;;8.25;3.30;;;;;;;;;;5120281;27;20135;-66
2023/07/21 02:25:47;;;;;;;5.03;3.05;;;;;;;;;;5099924;27;20093;-66
2023/07/21 02:28:13;;;;;;;5.00;2.67;;;;;;;;;;5108793;28;20371;-66
2023/07/21 02:30:39;;;;;;;4.22;2.60;;;;;;;;;;5106300;27;20032;-66
2023/07/21 02:33:05;;;;;;;5.32;2.80;;;;;;;;;;5103060;27;20051;-66
2023/07/21 02:35:32;;;;;;;4.72;2.67;;;;;;;;;;5109048;28;20036;-66
2023/07/21 02:38:00;;;;;;;6.38;2.83;;;;;;;;;;5117879;27;20052;-66
2023/07/21 02:40:26;;;;;;;6.43;3.28;;;;;;;;;;5102063;28;20063;-66
2023/07/21 02:42:52;;;;;;;4.10;2.38;;;;;;;;;;5088595;28;20491;-66
2023/07/21 02:45:19;;;;;;;3.90;2.20;;;;;;;;;;5101708;27;20120;-66
2023/07/21 02:47:45;;;;;;;3.38;1.80;;;;;;;;;;5103137;28;20040;-66
2023/07/21 02:50:11;;;;;;;12.90;1.92;;;;;;;;;;5103456;28;20059;-66
2023/07/21 02:52:38;;;;;;;4.05;1.80;;;;;;;;;;5101246;28;20046;-66
2023/07/21 02:55:06;;;;;;;3.30;1.80;;;;;;;;;;5103083;28;20126;-66
2023/07/21 02:57:34;;;;;;;3.92;2.08;;;;;;;;;;5101390;28;20428;-66
2023/07/21 03:00:01;;;;;;;2.90;1.55;;;;;;;;;;5118757;27;21440;-66
2023/07/21 03:02:28;;;;;;;4.80;1.70;;;;;;;;;;5098722;28;20043;-66
2023/07/21 03:04:55;;;;;;;3.28;1.77;;;;;;;;;;5101866;28;20465;-66
2023/07/21 03:07:21;;;;;;;4.35;1.85;;;;;;;;;;5101483;27;20046;-66
2023/07/21 03:09:47;;;;;;;3.13;1.48;;;;;;;;;;5081339;28;20040;-66
2023/07/21 03:12:13;;;;;;;2.63;1.40;;;;;;;;;;5102815;28;20925;-66
2023/07/21 03:14:39;;;;;;;3.80;1.20;;;;;;;;;;5100232;28;20058;-65
2023/07/21 03:17:05;;;;;;;3.40;1.50;;;;;;;;;;5101973;28;20047;-65
2023/07/21 03:19:32;;;;;;;4.95;2.05;;;;;;;;;;5101064;28;20035;-66
2023/07/21 03:22:00;;;;;;;6.20;2.70;;;;;;;;;;5101883;28;20073;-66
2023/07/21 03:24:26;;;;;;;4.90;2.97;;;;;;;;;;5106733;27;20066;-66
2023/07/21 03:26:53;;;;;;;6.78;4.00;;;;;;;;;;5106086;28;20066;-66
2023/07/21 03:29:19;;;;;;;5.88;3.30;;;;;;;;;;5106861;27;20111;-66
2023/07/21 03:31:45;;;;;;;5.93;3.63;;;;;;;;;;5105210;28;20624;-66
2023/07/21 03:34:11;;;;;;;6.72;3.85;;;;;;;;;;5109219;28;20036;-66
2023/07/21 03:36:38;;;;;;;8.93;4.20;;;;;;;;;;5111541;28;20122;-66
2023/07/21 03:39:04;;;;;;;5.57;3.63;;;;;;;;;;5107324;28;20039;-66
2023/07/21 03:41:30;;;;;;;7.15;3.33;;;;;;;;;;5109725;27;20040;-65
2023/07/21 03:43:56;;;;;;;4.10;2.58;;;;;;;;;;5110844;27;20044;-66
2023/07/21 03:46:22;;;;;;;4.18;2.55;;;;;;;;;;5110760;28;20562;-66
2023/07/21 03:48:50;;;;;;;5.10;3.03;;;;;;;;;;5109904;28;20556;-66
2023/07/21 03:51:16;;;;;;;4.00;2.45;;;;;;;;;;5110123;28;20056;-66
2023/07/21 03:53:42;;;;;;;9.30;1.88;;;;;;;;;;5109880;28;20059;-66
2023/07/21 03:56:08;;;;;;;39.72;3.08;;;;;;;;;;5110797;28;20142;-67
2023/07/21 03:58:34;;;;;;;9.32;2.25;;;;;;;;;;5113192;28;21907;-66
2023/07/21 04:01:01;;;;;;;4.47;2.20;;;;;;;;;;5111055;28;20522;-66
2023/07/21 04:03:27;;;;;;;6.15;2.40;;;;;;;;;;5111434;27;20043;-66
2023/07/21 04:05:53;;;;;;;4.80;2.40;;;;;;;;;;5114919;28;20055;-66
2023/07/21 04:08:20;;;;;;;5.38;2.50;;;;;;;;;;5115824;28;20043;-66
2023/07/21 04:10:46;;;;;;;8.32;2.90;;;;;;;;;;5114887;28;20036;-66
2023/07/21 04:13:12;;;;;;;6.55;3.20;;;;;;;;;;5115169;28;20123;-66
2023/07/21 04:15:38;;;;;;;7.82;3.50;;;;;;;;;;5116502;28;20155;-66
2023/07/21 04:18:05;;;;;;;9.73;4.30;;;;;;;;;;5115465;27;20526;-66
2023/07/21 04:20:31;;;;;;;6.75;3.70;;;;;;;;;;5113545;27;20040;-66
2023/07/21 04:22:58;;;;;;;5.97;3.30;;;;;;;;;;5126371;27;20120;-66
2023/07/21 04:25:24;;;;;;;5.70;3.30;;;;;;;;;;5114404;28;20042;-66
2023/07/21 04:27:54;;;;;;;5.30;3.08;;;;;;;;;;5113657;27;20169;-66
2023/07/21 04:30:20;;;;;;;6.68;3.05;;;;;;;;;;5115101;28;20051;-66
2023/07/21 04:32:46;;;;;;;6.80;4.22;;;;;;;;;;5118824;27;20043;-66
2023/07/21 04:35:16;;;;;;;5.47;3.38;;;;;;;;;;5112576;27;20130;-66
2023/07/21 04:37:42;;;;;;;6.05;3.45;;;;;;;;;;5113123;27;20077;-65
2023/07/21 04:40:08;;;;;;;12.82;3.40;;;;;;;;;;5122595;27;20384;-66
2023/07/21 04:42:34;;;;;;;5.22;2.80;;;;;;;;;;5113577;27;20118;-66
2023/07/21 04:45:01;;;;;;;5.78;3.15;;;;;;;;;;5113627;28;20039;-66
2023/07/21 04:47:27;;;;;;;5.30;2.47;;;;;;;;;;5114059;28;20092;-66
2023/07/21 04:49:53;;;;;;;9.10;4.45;;;;;;;;;;5113478;28;20495;-66
2023/07/21 04:52:19;;;;;;;6.15;4.05;;;;;;;;;;5091902;28;20120;-66
2023/07/21 04:54:46;;;;;;;8.93;5.15;;;;;;;;;;5111075;28;20035;-66
2023/07/21 04:57:12;;;;;;;7.53;4.50;;;;;;;;;;5110748;28;20055;-66
2023/07/21 04:59:38;;;;;;;7.18;4.88;;;;;;;;;;5092907;28;20138;-66
2023/07/21 05:02:05;;;;;;;8.85;5.35;;;;;;;;;;5110669;28;20529;-66
2023/07/21 05:04:31;;;;;;;7.05;4.00;;;;;;;;;;5110858;28;20039;-65
2023/07/21 05:06:57;;;;;;;9.02;5.03;;;;;;;;;;5111507;28;20097;-66
2023/07/21 05:09:24;;;;;;;7.95;4.55;;;;;;;;;;5110612;28;20036;-66
2023/07/21 05:11:50;;;;;;;8.30;5.30;;;;;;;;;;5108240;28;20036;-66
2023/07/21 05:14:17;;;;;;;11.77;5.40;;;;;;;;;;5112163;27;20529;-66
2023/07/21 05:16:44;;;;;;;10.57;5.63;;;;;;;;;;5107419;28;20056;-66
2023/07/21 05:19:10;;;;;;;12.73;5.40;;;;;;;;;;5105584;28;20052;-66
2023/07/21 05:21:37;;;;;;;6.82;4.90;;;;;;;;;;5114083;27;20039;-66
2023/07/21 05:24:03;;;;;;;8.70;6.10;;;;;;;;;;5114118;27;20101;-66
2023/07/21 05:26:30;;;;;;;10.00;5.70;;;;;;;;;;5109635;27;20414;-66
2023/07/21 05:28:57;;;;;;;10.48;5.65;;;;;;;;;;5112146;28;20143;-66
2023/07/21 05:31:24;;;;;;;10.07;6.13;;;;;;;;;;5113761;27;20042;-66
2023/07/21 05:33:53;;;;;;;9.10;5.55;;;;;;;;;;5117931;27;20040;-66
2023/07/21 05:36:20;;;;;;;9.15;6.20;;;;;;;;;;5142358;27;20134;-69
2023/07/21 05:38:47;;;;;;;11.35;6.40;;;;;;;;;;5106908;27;20039;-67
2023/07/21 05:41:14;;;;;;;11.15;6.85;;;;;;;;;;5109061;27;20141;-66
2023/07/21 05:43:40;;;;;;;8.52;6.22;;;;;;;;;;5111138;28;20063;-66
2023/07/21 05:46:07;;;;;;;15.57;6.88;;;;;;;;;;5108100;28;20149;-66
2023/07/21 05:48:33;;;;;;;11.68;6.82;;;;;;;;;;5107036;27;20051;-67
2023/07/21 05:50:59;;;;;;;9.55;6.10;;;;;;;;;;5110861;28;20384;-67
2023/07/21 05:53:26;;;;;;;11.80;6.82;;;;;;;;;;5109417;28;20054;-66
2023/07/21 05:55:52;;;;;;;9.85;6.93;;;;;;;;;;5109903;27;20043;-65
2023/07/21 05:58:22;;;;;;;10.88;6.53;;;;;;;;;;5109711;27;20134;-66
2023/07/21 06:00:49;;;;;;;11.27;5.70;;;;;;;;;;5138949;27;20052;-66
2023/07/21 06:03:15;;;;;;;12.65;6.68;;;;;;;;;;5105934;28;20148;-66
2023/07/21 06:05:41;;;;;;;9.20;6.28;;;;;;;;;;5105452;28;20054;-67
2023/07/21 06:08:07;;;;;;;12.85;5.38;;;;;;;;;;5106870;28;20184;-66
2023/07/21 06:10:34;;;;;;;9.13;5.18;;;;;;;;;;5097396;28;20070;-66
2023/07/21 06:13:00;;;;;;;12.52;5.82;;;;;;;;;;5099337;28;20035;-66
2023/07/21 06:15:26;;;;;;;10.23;5.72;;;;;;;;;;5106640;28;20371;-66
2023/07/21 06:17:53;;;;;;;10.88;5.72;;;;;;;;;;5110080;27;20134;-67
2023/07/21 06:20:26;;;;;;;30.77;8.95;;;;;;;;;;5090716;28;20352;-82
2023/07/21 06:22:52;;;;;;;9.10;6.05;;;;;;;;;;5078329;27;20534;-67
2023/07/21 06:25:19;;;;;;;12.38;6.47;;;;;;;;;;5099575;28;20054;-66
2023/07/21 06:27:47;;;;;;;11.38;5.70;;;;;;;;;;5107087;28;20336;-66
2023/07/21 06:30:14;;;;;;;11.90;4.93;;;;;;;;;;5107659;27;20063;-66
2023/07/21 06:32:40;;;;;;;8.98;5.63;;;;;;;;;;5097858;27;20065;-67
2023/07/21 06:35:07;;;;;;;6.95;5.05;;;;;;;;;;5097492;27;20044;-66
2023/07/21 06:37:33;;;;;;;8.40;5.10;;;;;;;;;;5104734;27;20160;-67
2023/07/21 06:40:01;;;;;;;10.32;5.20;;;;;;;;;;5112225;28;20044;-67
2023/07/21 06:42:28;;;;;;;7.13;3.90;;;;;;;;;;5110681;28;20047;-69
2023/07/21 06:44:54;;;;;;;8.48;4.32;;;;;;;;;;5107606;27;20067;-66
2023/07/21 06:47:20;;;;;;;8.82;4.40;;;;;;;;;;5110084;28;20407;-67
2023/07/21 06:49:46;;;;;;;6.30;4.25;;;;;;;;;;5110655;27;20035;-74
2023/07/21 06:52:12;;;;;;;8.15;4.70;;;;;;;;;;5105331;28;20130;-67
2023/07/21 06:54:39;;;;;;;8.13;4.55;;;;;;;;;;5108758;28;20075;-67
2023/07/21 06:57:05;;;;;;;8.93;4.72;;;;;;;;;;5105892;27;20061;-67
2023/07/21 06:59:31;;;;;;;7.32;4.10;;;;;;;;;;5106466;27;20043;-67
2023/07/21 07:01:58;;;;;;;8.15;4.20;;;;;;;;;;5107379;28;20100;-67
2023/07/21 07:04:25;;;;;;;9.65;5.25;;;;;;;;;;5106685;27;20066;-67
2023/07/21 07:06:55;;;;;;;7.32;4.38;;;;;;;;;;5106212;28;20127;-66
2023/07/21 07:09:25;;;;;;;9.27;4.53;;;;;;;;;;5105265;28;20051;-66
2023/07/21 07:11:54;;;;;;;7.78;4.88;;;;;;;;;;5104085;28;20122;-67
2023/07/21 07:14:20;;;;;;;8.02;5.18;;;;;;;;;;5106143;28;20675;-67
2023/07/21 07:16:46;;;;;;;8.95;4.47;;;;;;;;;;5104168;28;20075;-67
2023/07/21 07:19:12;;;;;;;6.07;4.15;;;;;;;;;;5105816;28;20043;-67
2023/07/21 07:21:38;;;;;;;6.03;4.15;;;;;;;;;;5105396;28;20119;-67
2023/07/21 07:24:05;;;;;;;26.70;5.03;;;;;;;;;;5103140;28;20052;-67
2023/07/21 07:26:31;;;;;;;9.13;4.07;;;;;;;;;;5105220;28;20043;-67
2023/07/21 07:28:58;;;;;;;6.53;3.33;;;;;;;;;;5105670;28;20094;-67
2023/07/21 07:31:25;;;;;;;5.85;2.95;;;;;;;;;;5104358;28;20047;-67
2023/07/21 07:33:52;;;;;;;5.22;2.95;;;;;;;;;;5103960;28;20051;-67
2023/07/21 07:36:18;;;;;;;5.38;2.80;;;;;;;;;;5103324;28;20054;-67
2023/07/21 07:38:44;;;;;;;4.60;2.20;;;;;;;;;;5103988;28;20479;-67
2023/07/21 07:41:10;;;;;;;5.40;3.03;;;;;;;;;;5103076;28;20039;-67
2023/07/21 07:43:37;;;;;;;5.38;3.60;;;;;;;;;;5103897;28;20123;-67
2023/07/21 07:46:05;;;;;;;5.10;3.15;;;;;;;;;;5104608;28;20471;-67
2023/07/21 07:48:33;;;;;;;7.63;3.13;;;;;;;;;;5101886;28;20124;-67
2023/07/21 07:51:02;;;;;;;5.35;2.50;;;;;;;;;;5102306;28;20059;-67
2023/07/21 07:53:28;;;;;;;5.15;3.25;;;;;;;;;;5103140;28;20066;-67
2023/07/21 07:55:55;;;;;;;5.78;3.17;;;;;;;;;;5104491;28;20050;-67
2023/07/21 07:58:21;;;;;;;3.53;2.40;;;;;;;;;;5103128;28;20047;-67
2023/07/21 08:00:47;;;;;;;4.60;2.45;;;;;;;;;;5131516;27;20262;-66
2023/07/21 08:03:14;;;;;;;3.85;1.75;;;;;;;;;;5106469;28;20046;-67
2023/07/21 08:05:41;;;;;;;3.90;1.70;;;;;;;;;;5105213;28;20036;-67
2023/07/21 08:08:08;;;;;;;3.63;1.98;;;;;;;;;;5107051;28;20054;-67
2023/07/21 08:10:35;;;;;;;4.35;1.75;;;;;;;;;;5103797;28;20050;-67
2023/07/21 08:13:02;;;;;;;4.00;2.03;;;;;;;;;;5103321;28;20132;-67
2023/07/21 08:15:29;;;;;;;4.80;1.83;;;;;;;;;;5104342;28;20032;-67
2023/07/21 08:17:55;;;;;;;3.08;1.45;;;;;;;;;;5105447;28;20116;-67
2023/07/21 08:20:21;;;;;;;8.93;2.28;;;;;;;;;;5103192;28;20104;-67
2023/07/21 08:22:48;;;;;;;3.97;1.83;;;;;;;;;;5103142;28;20526;-67
2023/07/21 08:25:15;;;;;;;3.45;1.90;;;;;;;;;;5103628;28;20032;-67
2023/07/21 08:27:42;;;;;;;5.55;3.03;;;;;;;;;;5103036;28;20371;-67
2023/07/21 08:30:08;;;;;;;7.20;3.25;;;;;;;;;;5102492;28;20250;-66
2023/07/21 08:32:38;;;;;;;4.22;3.20;;;;;;;;;;5102556;28;20055;-66
2023/07/21 08:35:06;;;;;;;6.30;2.97;;;;;;;;;;5102154;28;20048;-67
2023/07/21 08:37:32;;;;;;;4.20;1.85;;;;;;;;;;5103728;28;20048;-67
2023/07/21 08:39:58;;;;;;;5.07;2.30;;;;;;;;;;5107258;28;20103;-67
2023/07/21 08:42:25;;;;;;;5.57;2.28;;;;;;;;;;5108789;28;20085;-66
2023/07/21 08:44:53;;;;;;;3.53;1.85;;;;;;;;;;5109030;28;20062;-67
2023/07/21 08:47:20;;;;;;;4.75;1.95;;;;;;;;;;5109726;28;20051;-67
2023/07/21 08:49:46;;;;;;;4.82;2.28;;;;;;;;;;5111652;28;20448;-67
2023/07/21 08:52:12;;;;;;;4.05;2.15;;;;;;;;;;5114274;27;20089;-67
2023/07/21 08:54:39;;;;;;;8.20;2.83;;;;;;;;;;5113715;28;20071;-67
2023/07/21 08:57:05;;;;;;;5.43;3.03;;;;;;;;;;5115309;28;20047;-67
2023/07/21 08:59:31;;;;;;;4.97;3.10;;;;;;;;;;5114193;28;20390;-67
2023/07/21 09:01:58;;;;;;;5.35;3.05;;;;;;;;;;5114280;27;20088;-67
2023/07/21 09:04:25;;;;;;;6.50;3.53;;;;;;;;;;5115218;28;20040;-67
2023/07/21 09:06:56;;;;;;;5.30;2.90;;;;;;;;;;5113618;28;20047;-67
2023/07/21 09:09:23;;;;;;;4.38;2.58;;;;;;;;;;5113611;28;20043;-67
2023/07/21 09:11:50;;;;;;;5.03;2.80;;;;;;;;;;5112458;28;20036;-67
2023/07/21 09:14:17;;;;;;;5.05;2.90;;;;;;;;;;5114952;28;20052;-67
2023/07/21 09:16:44;;;;;;;4.78;3.30;;;;;;;;;;5114429;27;20039;-67
2023/07/21 09:19:10;;;;;;;6.18;4.28;;;;;;;;;;5114847;28;20086;-67
2023/07/21 09:21:37;;;;;;;7.80;4.03;;;;;;;;;;5112375;28;20082;-67
2023/07/21 09:24:05;;;;;;;6.53;3.85;;;;;;;;;;5113167;28;20122;-67
2023/07/21 09:26:31;;;;;;;5.60;3.58;;;;;;;;;;5110737;27;20075;-67
2023/07/21 09:28:57;;;;;;;8.13;3.20;;;;;;;;;;5112554;28;20130;-67
2023/07/21 09:31:33;;;;;;;6.53;3.28;;;;;;;;;;5111534;27;20479;-67
2023/07/21 09:34:06;;;;;;;5.35;3.70;;;;;;;;;;5120262;27;20039;-67
2023/07/21 09:36:33;;;;;;;4.60;2.60;;;;;;;;;;5114188;28;20039;-67
2023/07/21 09:39:02;;;;;;;4.80;3.00;;;;;;;;;;5114629;28;20184;-67
2023/07/21 09:41:30;;;;;;;5.88;3.45;;;;;;;;;;5113135;28;20453;-67
2023/07/21 09:43:59;;;;;;;5.53;3.42;;;;;;;;;;5111929;28;20332;-67
2023/07/21 09:46:26;;;;;;;5.45;3.40;;;;;;;;;;5113576;28;20514;-67
2023/07/21 09:48:53;;;;;;;4.88;3.08;;;;;;;;;;5112700;27;20412;-67
2023/07/21 09:51:26;;;;;;;6.63;3.95;;;;;;;;;;5112416;28;20090;-67
2023/07/21 09:53:53;;;;;;;7.17;4.07;;;;;;;;;;5112615;27;20522;-67
2023/07/21 09:56:21;;;;;;;6.65;4.00;;;;;;;;;;5113197;28;20069;-67
2023/07/21 09:58:51;;;;;;;7.90;3.97;;;;;;;;;;5113892;28;20058;-67
2023/07/21 10:01:18;;;;;;;5.70;3.75;;;;;;;;;;5112797;28;20463;-67
2023/07/21 10:03:45;;;;;;;7.28;2.83;;;;;;;;;;5113197;27;20043;-67
2023/07/21 10:06:11;;;;;;;3.72;2.40;;;;;;;;;;5113776;28;20047;-67
2023/07/21 10:08:38;;;;;;;6.53;3.35;;;;;;;;;;5113850;28;20170;-67
2023/07/21 10:11:09;;;;;;;5.80;2.95;;;;;;;;;;5112559;27;20352;-67
2023/07/21 10:13:43;;;;;;;5.30;2.80;;;;;;;;;;5113935;27;20032;-67
2023/07/21 10:16:09;;;;;;;4.03;2.53;;;;;;;;;;5105846;28;20046;-67
2023/07/21 10:18:36;;;;;;;4.70;2.53;;;;;;;;;;5111079;28;20070;-67
2023/07/21 10:21:03;;;;;;;4.55;2.47;;;;;;;;;;5112644;28;20046;-67
2023/07/21 10:23:34;;;;;;;3.72;2.45;;;;;;;;;;5112305;28;20051;-67
2023/07/21 10:26:03;;;;;;;3.70;2.25;;;;;;;;;;5111548;28;20052;-67
2023/07/21 10:28:34;;;;;;;5.38;2.72;;;;;;;;;;5113117;28;20155;-67
2023/07/21 10:31:19;;;;;;;2.92;1.17;;;;;;;;;;5113069;27;20046;-67
2023/07/21 10:34:04;;;;;;;3.25;1.27;;;;;;;;;;5110759;28;20040;-67
2023/07/21 10:36:42;;;;;;;2.97;1.42;;;;;;;;;;5113708;28;20071;-67
2023/07/21 10:39:12;;;;;;;5.07;1.80;;;;;;;;;;5111510;27;20439;-67
2023/07/21 10:41:39;;;;;;;3.70;1.92;;;;;;;;;;5111510;28;20524;-67
2023/07/21 10:44:06;;;;;;;5.85;1.80;;;;;;;;;;5112454;28;20525;-67
2023/07/21 10:46:40;;;;;;;3.50;1.67;;;;;;;;;;5112506;27;20042;-68
2023/07/21 10:49:06;;;;;;;3.58;1.60;;;;;;;;;;5112470;27;20101;-68
2023/07/21 10:51:32;;;;;;;4.95;1.63;;;;;;;;;;5112487;28;20051;-68
2023/07/21 10:53:59;;;;;;;3.63;1.52;;;;;;;;;;5111137;27;20104;-67
2023/07/21 10:56:25;;;;;;;3.28;1.50;;;;;;;;;;5107990;27;20036;-67
2023/07/21 10:58:52;;;;;;;6.30;2.22;;;;;;;;;;5108375;28;20027;-67
2023/07/21 11:01:19;;;;;;;9.40;3.40;;;;;;;;;;5099346;27;20055;-67
2023/07/21 11:03:46;;;;;;;7.03;3.35;;;;;;;;;;5105728;28;20036;-67
2023/07/21 11:06:13;;;;;;;5.53;3.50;;;;;;;;;;5106421;28;20036;-67
2023/07/21 11:08:39;;;;;;;5.35;3.22;;;;;;;;;;5108881;28;20122;-67
2023/07/21 11:11:07;;;;;;;6.38;3.33;;;;;;;;;;5109878;28;20043;-67
2023/07/21 11:13:33;;;;;;;6.93;3.88;;;;;;;;;;5104185;28;20163;-67
2023/07/21 11:16:02;;;;;;;7.70;3.72;;;;;;;;;;5111449;28;20032;-66
2023/07/21 11:18:28;;;;;;;10.43;3.72;;;;;;;;;;5093484;28;20454;-69
2023/07/21 11:20:55;;;;;;;8.65;3.53;;;;;;;;;;5111837;28;20147;-67
2023/07/21 11:23:22;;;;;;;9.02;3.47;;;;;;;;;;5112756;27;20475;-67
2023/07/21 11:26:09;;;;;;;13.85;4.00;;;;;;;;;;5110909;28;20039;-67
2023/07/21 11:28:37;;;;;;;9.60;4.25;;;;;;;;;;5111774;28;20497;-67
2023/07/21 11:31:09;;;;;;;10.07;4.07;;;;;;;;;;5106440;28;20050;-67
2023/07/21 11:33:40;;;;;;;10.45;3.70;;;;;;;;;;5110524;27;20043;-67
2023/07/21 11:36:13;;;;;;;8.23;3.53;;;;;;;;;;5109178;28;20467;-67
2023/07/21 11:38:39;;;;;;;8.38;3.65;;;;;;;;;;5102898;27;20044;-68
2023/07/21 11:41:09;;;;;;;7.53;3.08;;;;;;;;;;5106271;28;20051;-67
2023/07/21 11:43:48;;;;;;;6.15;3.22;;;;;;;;;;5101943;28;20090;-67
2023/07/21 11:46:23;;;;;;;7.25;3.40;;;;;;;;;;5107074;28;20044;-67
2023/07/21 11:48:49;;;;;;;7.68;3.58;;;;;;;;;;5108409;28;20118;-67
2023/07/21 11:51:16;;;;;;;10.50;3.97;;;;;;;;;;5106340;27;20457;-66
2023/07/21 11:53:48;;;;;;;9.73;3.95;;;;;;;;;;5109335;28;20047;-67
2023/07/21 11:56:15;;;;;;;9.10;3.50;;;;;;;;;;5110705;28;20048;-66
2023/07/21 11:58:42;;;;;;;9.65;4.10;;;;;;;;;;5111394;28;20101;-67
2023/07/21 12:01:08;;;;;;;10.05;4.25;;;;;;;;;;5108548;28;20509;-66
2023/07/21 12:03:40;;;;;;;12.45;4.50;;;;;;;;;;5111096;28;20317;-65
2023/07/21 12:06:06;;;;;;;8.90;4.47;;;;;;;;;;5110793;28;20071;-66
2023/07/21 12:08:33;;;;;;;13.65;4.55;;;;;;;;;;5109399;28;20043;-65
2023/07/21 12:11:00;;;;;;;9.63;4.57;;;;;;;;;;5126152;27;20039;-67
2023/07/21 12:13:26;;;;;;;13.25;4.80;;;;;;;;;;5109347;28;20093;-67
2023/07/21 12:15:55;;;;;;;11.45;3.67;;;;;;;;;;5111354;28;20051;-68
2023/07/21 12:18:22;;;;;;;10.88;4.88;;;;;;;;;;5109769;28;20039;-67
2023/07/21 12:20:48;;;;;;;11.50;4.53;;;;;;;;;;5100837;28;20137;-67
2023/07/21 12:23:14;;;;;;;8.57;4.00;;;;;;;;;;5110465;28;20127;-67
2023/07/21 12:25:40;;;;;;;5.03;2.28;;;;;;;;;;5113618;28;20036;-67
2023/07/21 12:28:07;;;;;;;4.45;2.10;;;;;;;;;;5115778;28;20467;-67
2023/07/21 12:30:33;;;;;;;8.95;3.20;;;;;;;;;;5115555;28;20112;-67
2023/07/21 12:32:59;;;;;;;6.18;2.60;;;;;;;;;;5115717;27;20040;-67
2023/07/21 12:35:25;;;;;;;6.65;2.30;;;;;;;;;;5114736;28;20051;-67
2023/07/21 12:37:51;;;;;;;3.70;2.08;;;;;;;;;;5115878;28;20040;-67
2023/07/21 12:40:18;;;;;;;4.55;1.98;;;;;;;;;;5130849;27;20419;-68
2023/07/21 12:42:44;;;;;;;2.78;1.42;;;;;;;;;;5114953;27;20066;-67
2023/07/21 12:45:11;;;;;;;2.85;1.45;;;;;;;;;;5113768;27;20073;-67
2023/07/21 12:47:37;;;;;;;3.65;1.75;;;;;;;;;;5114956;28;20093;-67
2023/07/21 12:50:04;;;;;;;4.63;1.83;;;;;;;;;;5131097;27;20035;-67
2023/07/21 12:52:30;;;;;;;6.03;2.13;;;;;;;;;;5102551;27;20063;-67
2023/07/21 12:54:57;;;;;;;4.63;2.45;;;;;;;;;;5111017;27;20050;-67
2023/07/21 12:57:23;;;;;;;8.40;3.58;;;;;;;;;;5113791;28;20433;-67
2023/07/21 12:59:49;;;;;;;6.95;3.53;;;;;;;;;;5113375;28;20487;-67
2023/07/21 13:02:15;;;;;;;8.77;4.78;;;;;;;;;;5115359;28;20050;-67
2023/07/21 13:04:42;;;;;;;7.60;4.90;;;;;;;;;;5113370;28;20506;-67
2023/07/21 13:07:09;;;;;;;8.93;3.67;;;;;;;;;;5112739;28;20087;-67
2023/07/21 13:09:35;;;;;;;6.35;3.50;;;;;;;;;;5114772;28;20188;-67
2023/07/21 13:12:02;;;;;;;5.47;3.17;;;;;;;;;;5113673;27;20070;-67
2023/07/21 13:14:28;;;;;;;7.80;2.28;;;;;;;;;;5114327;28;20092;-68
2023/07/21 13:16:55;;;;;;;5.18;2.65;;;;;;;;;;5114938;28;20122;-67
2023/07/21 13:19:21;;;;;;;4.28;2.13;;;;;;;;;;5114002;27;20051;-67
2023/07/21 13:21:47;;;;;;;3.97;2.05;;;;;;;;;;5111763;27;20046;-67
2023/07/21 13:24:13;;;;;;;3.80;1.80;;;;;;;;;;5114652;28;20507;-67
2023/07/21 13:26:40;;;;;;;4.07;2.15;;;;;;;;;;5113656;28;20038;-67
2023/07/21 13:29:13;;;;;;;4.43;2.20;;;;;;;;;;5114216;28;20148;-67
2023/07/21 13:31:39;;;;;;;3.92;1.92;;;;;;;;;;5114205;27;20126;-67
2023/07/21 13:34:05;;;;;;;3.70;1.88;;;;;;;;;;5113904;27;20042;-67
2023/07/21 13:36:32;;;;;;;4.00;1.95;;;;;;;;;;5111493;28;20056;-67
2023/07/21 13:38:58;;;;;;;4.03;2.13;;;;;;;;;;5114158;28;20036;-67
2023/07/21 13:41:24;;;;;;;5.78;2.45;;;;;;;;;;5130238;27;20445;-67
2023/07/21 13:43:50;;;;;;;5.20;2.75;;;;;;;;;;5113423;27;20479;-67
2023/07/21 13:46:17;;;;;;;4.85;2.55;;;;;;;;;;5108699;27;20390;-67
2023/07/21 13:48:43;;;;;;;4.15;2.30;;;;;;;;;;5111985;28;20126;-67
2023/07/21 13:51:09;;;;;;;4.25;2.35;;;;;;;;;;5112003;28;20047;-67
2023/07/21 13:53:35;;;;;;;6.10;2.67;;;;;;;;;;5115222;27;20043;-67
2023/07/21 13:56:02;;;;;;;7.05;2.75;;;;;;;;;;5112494;28;20356;-68
2023/07/21 13:58:28;;;;;;;3.92;2.25;;;;;;;;;;5114366;28;20051;-68
2023/07/21 14:00:55;;;;;;;5.07;2.83;;;;;;;;;;5111827;27;20036;-68
2023/07/21 14:03:21;;;;;;;5.35;2.95;;;;;;;;;;5112788;27;20058;-69
2023/07/21 14:05:48;;;;;;;6.70;3.58;;;;;;;;;;5107156;28;20047;-77
2023/07/21 14:08:15;;;;;;;7.65;3.85;;;;;;;;;;5106425;28;20059;-72
2023/07/21 14:10:41;;;;;;;6.20;3.40;;;;;;;;;;5107706;27;20035;-72
2023/07/21 14:13:07;;;;;;;6.97;4.13;;;;;;;;;;5106718;28;20197;-72
2023/07/21 14:15:34;;;;;;;7.03;4.50;;;;;;;;;;5107485;27;20055;-72
2023/07/21 14:18:00;;;;;;;11.95;4.22;;;;;;;;;;5107663;27;20043;-73
2023/07/21 14:20:28;;;;;;;6.40;3.75;;;;;;;;;;5105969;28;20043;-77
2023/07/21 14:22:54;;;;;;;7.80;4.88;;;;;;;;;;5111212;27;20066;-72
2023/07/21 14:25:20;;;;;;;9.48;5.13;;;;;;;;;;5112786;28;20066;-71
2023/07/21 14:27:48;;;;;;;6.20;3.97;;;;;;;;;;5110117;28;20852;-72
2023/07/21 14:30:15;;;;;;;10.50;4.72;;;;;;;;;;5111676;28;20097;-72
2023/07/21 14:32:41;;;;;;;7.55;4.60;;;;;;;;;;5111455;28;20048;-72
2023/07/21 14:35:11;;;;;;;9.35;5.40;;;;;;;;;;5109356;28;20153;-72
2023/07/21 14:37:38;;;;;;;9.10;6.05;;;;;;;;;;5108040;27;20055;-72
2023/07/21 14:40:15;;;;;;;8.18;5.97;;;;;;;;;;5108828;28;20046;-71